createdAt,value
2019-01-20T00:00:52.511Z,100.00
2019-01-20T00:03:49.236Z,100.00
2019-01-20T00:06:44.977Z,100.00
2019-01-20T00:09:45.852Z,100.00
2019-01-20T00:12:41.389Z,100.00
2019-01-20T00:15:38.129Z,100.00
2019-01-20T00:18:33.923Z,100.00
2019-01-20T00:21:30.198Z,100.00
2019-01-20T00:24:26.806Z,100.00
2019-01-20T00:27:24.611Z,100.00
2019-01-20T00:30:21.227Z,100.00
2019-01-20T00:33:19.003Z,100.00
2019-01-20T00:36:19.707Z,100.00
2019-01-20T00:39:16.283Z,100.00
2019-01-20T00:42:13.982Z,100.00
2019-01-20T00:45:27.205Z,100.00
2019-01-20T00:48:25.841Z,100.00
2019-01-20T00:51:34.315Z,100.00
2019-01-20T00:54:29.664Z,100.00
2019-01-20T00:57:26.703Z,100.00
2019-01-20T01:00:26.379Z,100.00
2019-01-20T01:03:22.305Z,100.00
2019-01-20T01:06:18.826Z,100.00
2019-01-20T01:09:15.148Z,100.00
2019-01-20T01:12:10.683Z,100.00
2019-01-20T01:15:07.241Z,100.00
2019-01-20T01:18:03.902Z,100.00
2019-01-20T01:21:01.402Z,100.00
2019-01-20T01:23:57.231Z,100.00
2019-01-20T01:26:55.066Z,100.00
2019-01-20T01:29:50.693Z,100.00
2019-01-20T01:32:47.306Z,100.00
2019-01-20T01:35:42.849Z,100.00
2019-01-20T01:38:40.718Z,100.00
2019-01-20T01:41:39.161Z,100.00
2019-01-20T01:44:33.081Z,100.00
2019-01-20T01:47:30.341Z,100.00
2019-01-20T01:50:25.174Z,100.00
2019-01-20T01:53:24.195Z,100.00
2019-01-20T01:56:19.661Z,100.00
2019-01-20T01:59:16.395Z,100.00
2019-01-20T02:02:12.911Z,100.00
2019-01-20T02:05:08.379Z,100.00
2019-01-20T02:08:05.151Z,100.00
2019-01-20T02:11:01.909Z,100.00
2019-01-20T02:14:03.511Z,100.00
2019-01-20T02:16:59.191Z,100.00
2019-01-20T02:19:55.481Z,100.00
2019-01-20T02:22:52.041Z,100.00
2019-01-20T02:25:48.559Z,100.00
2019-01-20T02:28:45.297Z,100.00
2019-01-20T02:31:42.059Z,100.00
2019-01-20T02:34:38.805Z,100.00
2019-01-20T02:37:34.474Z,100.00
2019-01-20T02:40:30.612Z,100.00
2019-01-20T02:43:26.692Z,100.00
2019-01-20T02:46:23.421Z,100.00
2019-01-20T02:49:20.164Z,100.00
2019-01-20T02:52:16.947Z,100.00
2019-01-20T02:55:13.540Z,100.00
2019-01-20T02:58:09.987Z,100.00
2019-01-20T03:01:07.780Z,100.00
2019-01-20T03:04:09.338Z,100.00
2019-01-20T03:07:16.170Z,100.00
2019-01-20T03:10:11.883Z,100.00
2019-01-20T03:13:08.641Z,100.00
2019-01-20T03:16:04.191Z,100.00
2019-01-20T03:19:01.068Z,100.00
2019-01-20T03:21:58.056Z,100.00
2019-01-20T03:24:53.675Z,100.00
2019-01-20T03:27:50.143Z,100.00
2019-01-20T03:30:45.616Z,100.00
2019-01-20T03:33:42.203Z,100.00
2019-01-20T03:36:37.352Z,100.00
2019-01-20T03:39:35.087Z,100.00
2019-01-20T03:42:31.786Z,100.00
2019-01-20T03:45:34.252Z,100.00
2019-01-20T03:48:30.203Z,100.00
2019-01-20T03:51:25.170Z,100.00
2019-01-20T03:54:22.821Z,100.00
2019-01-20T03:57:19.398Z,100.00
2019-01-20T04:00:15.877Z,100.00
2019-01-20T04:03:14.523Z,100.00
2019-01-20T04:06:21.229Z,100.00
2019-01-20T04:09:17.989Z,100.00
2019-01-20T04:12:20.494Z,100.00
2019-01-20T04:15:10.175Z,100.00
2019-01-20T04:18:06.339Z,100.00
2019-01-20T04:21:03.833Z,100.00
2019-01-20T04:24:00.754Z,100.00
2019-01-20T04:26:55.524Z,100.00
2019-01-20T04:29:53.237Z,100.00
2019-01-20T04:32:49.916Z,100.00
2019-01-20T04:35:46.444Z,100.00
2019-01-20T04:38:42.951Z,100.00
2019-01-20T04:41:38.661Z,100.00
2019-01-20T04:44:34.497Z,100.00
2019-01-20T04:47:30.097Z,100.00
2019-01-20T04:50:28.607Z,100.00
2019-01-20T04:53:33.833Z,100.00
2019-01-20T04:56:29.779Z,100.00
2019-01-20T04:59:25.252Z,100.00
2019-01-20T05:02:21.715Z,100.00
2019-01-20T05:05:19.312Z,100.00
2019-01-20T05:08:15.813Z,100.00
2019-01-20T05:11:13.540Z,100.00
2019-01-20T05:14:09.095Z,100.00
2019-01-20T05:17:16.917Z,100.00
2019-01-20T05:20:26.909Z,100.00
2019-01-20T05:23:22.654Z,100.00
2019-01-20T05:26:19.168Z,100.00
2019-01-20T05:29:14.409Z,100.00
2019-01-20T05:32:11.046Z,100.00
2019-01-20T05:35:07.722Z,100.00
2019-01-20T05:38:04.252Z,100.00
2019-01-20T05:41:01.294Z,100.00
2019-01-20T05:43:56.164Z,100.00
2019-01-20T05:46:52.856Z,100.00
2019-01-20T05:49:48.577Z,100.00
2019-01-20T05:52:46.245Z,100.00
2019-01-20T05:55:42.780Z,100.00
2019-01-20T05:58:38.317Z,100.00
2019-01-20T06:01:35.996Z,100.00
2019-01-20T06:04:31.510Z,100.00
2019-01-20T06:07:27.402Z,100.00
2019-01-20T06:10:23.698Z,100.00
2019-01-20T06:13:19.400Z,100.00
2019-01-20T06:16:15.886Z,100.00
2019-01-20T06:19:11.558Z,100.00
2019-01-20T06:22:09.709Z,100.00
2019-01-20T06:25:05.300Z,100.00
2019-01-20T06:28:01.828Z,100.00
2019-01-20T06:30:57.652Z,100.00
2019-01-20T06:33:53.197Z,100.00
2019-01-20T06:36:49.672Z,100.00
2019-01-20T06:39:45.356Z,100.00
2019-01-20T06:42:42.594Z,100.00
2019-01-20T06:45:37.970Z,100.00
2019-01-20T06:48:34.740Z,100.00
2019-01-20T06:51:30.825Z,100.00
2019-01-20T06:54:27.387Z,100.00
2019-01-20T06:57:22.891Z,100.00
2019-01-20T07:00:19.628Z,100.00
2019-01-20T07:03:17.569Z,100.00
2019-01-20T07:06:13.075Z,100.00
2019-01-20T07:09:10.671Z,100.00
2019-01-20T07:12:07.414Z,100.00
2019-01-20T07:15:04.239Z,100.00
2019-01-20T07:18:01.060Z,100.00
2019-01-20T07:20:56.528Z,100.00
2019-01-20T07:23:54.277Z,100.00
2019-01-20T07:26:50.788Z,100.00
2019-01-20T07:29:48.392Z,100.00
2019-01-20T07:32:51.380Z,100.00
2019-01-20T07:35:49.151Z,100.00
2019-01-20T07:38:45.819Z,100.00
2019-01-20T07:41:40.846Z,100.00
2019-01-20T07:44:37.428Z,100.00
2019-01-20T07:47:32.290Z,100.00
2019-01-20T07:50:29.738Z,100.00
2019-01-20T07:53:27.270Z,100.00
2019-01-20T07:56:22.756Z,100.00
2019-01-20T07:59:19.252Z,100.00
2019-01-20T08:02:15.752Z,100.00
2019-01-20T08:05:12.586Z,100.00
2019-01-20T08:08:07.920Z,100.00
2019-01-20T08:11:03.511Z,100.00
2019-01-20T08:14:00.592Z,100.00
2019-01-20T08:16:56.816Z,100.00
2019-01-20T08:19:54.123Z,100.00
2019-01-20T08:22:50.626Z,100.00
2019-01-20T08:25:47.205Z,100.00
2019-01-20T08:28:43.974Z,100.00
2019-01-20T08:31:39.476Z,100.00
2019-01-20T08:34:36.008Z,100.00
2019-01-20T08:37:31.681Z,100.00
2019-01-20T08:40:29.771Z,100.00
2019-01-20T08:43:31.698Z,100.00
2019-01-20T08:46:39.697Z,100.00
2019-01-20T08:49:41.380Z,100.00
2019-01-20T08:52:37.914Z,100.00
2019-01-20T08:55:33.586Z,100.00
2019-01-20T08:58:29.986Z,100.00
2019-01-20T09:01:26.788Z,100.00
2019-01-20T09:04:23.450Z,100.00
2019-01-20T09:07:20.166Z,100.00
2019-01-20T09:10:16.690Z,100.00
2019-01-20T09:13:16.499Z,100.00
2019-01-20T09:16:12.763Z,100.00
2019-01-20T09:19:08.822Z,100.00
2019-01-20T09:22:04.582Z,100.00
2019-01-20T09:25:03.066Z,100.00
2019-01-20T09:27:58.060Z,100.00
2019-01-20T09:30:54.798Z,100.00
2019-01-20T09:33:51.397Z,100.00
2019-01-20T09:36:46.902Z,100.00
2019-01-20T09:39:43.133Z,100.00
2019-01-20T09:42:38.301Z,100.00
2019-01-20T09:45:58.082Z,100.00
2019-01-20T09:48:55.768Z,100.00
2019-01-20T09:51:59.018Z,100.00
2019-01-20T09:54:56.545Z,100.00
2019-01-20T09:57:52.077Z,100.00
2019-01-20T10:00:49.781Z,100.00
2019-01-20T10:03:45.528Z,100.00
2019-01-20T10:06:42.258Z,100.00
2019-01-20T10:09:37.798Z,100.00
2019-01-20T10:12:34.249Z,100.00
2019-01-20T10:15:33.097Z,100.00
2019-01-20T10:18:29.874Z,100.00
2019-01-20T10:21:26.424Z,100.00
2019-01-20T10:24:22.160Z,100.00
2019-01-20T10:27:19.917Z,100.00
2019-01-20T10:30:15.631Z,100.00
2019-01-20T10:33:12.322Z,100.00
2019-01-20T10:36:16.581Z,100.00
2019-01-20T10:39:14.056Z,100.00
2019-01-20T10:42:10.838Z,100.00
2019-01-20T10:45:07.637Z,100.00
2019-01-20T10:48:03.232Z,100.00
2019-01-20T10:50:58.786Z,100.00
2019-01-20T10:53:55.387Z,100.00
2019-01-20T10:56:50.851Z,100.00
2019-01-20T10:59:47.387Z,100.00
2019-01-20T11:02:43.187Z,100.00
2019-01-20T11:05:41.797Z,100.00
2019-01-20T11:08:38.136Z,100.00
2019-01-20T11:11:33.448Z,100.00
2019-01-20T11:14:30.195Z,100.00
2019-01-20T11:17:27.827Z,100.00
2019-01-20T11:20:25.514Z,100.00
2019-01-20T11:23:21.966Z,100.00
2019-01-20T11:26:18.649Z,100.00
2019-01-20T11:29:14.599Z,100.00
2019-01-20T11:32:10.061Z,100.00
2019-01-20T11:35:06.982Z,100.00
2019-01-20T11:38:03.669Z,100.00
2019-01-20T11:41:00.409Z,100.00
2019-01-20T11:43:56.128Z,100.00
2019-01-20T11:46:52.808Z,100.00
2019-01-20T11:49:49.558Z,100.00
2019-01-20T11:52:45.218Z,100.00
2019-01-20T11:55:43.865Z,100.00
2019-01-20T11:58:39.634Z,100.00
2019-01-20T12:01:47.606Z,100.00
2019-01-20T12:04:43.947Z,100.00
2019-01-20T12:07:39.950Z,100.00
2019-01-20T12:10:37.041Z,100.00
2019-01-20T12:13:42.568Z,100.00
2019-01-20T12:16:39.665Z,100.00
2019-01-20T12:19:36.693Z,100.00
2019-01-20T12:22:33.255Z,100.00
2019-01-20T12:25:30.270Z,100.00
2019-01-20T12:28:27.916Z,100.00
2019-01-20T12:31:24.692Z,100.00
2019-01-20T12:34:21.077Z,100.00
2019-01-20T12:37:18.764Z,100.00
2019-01-20T12:40:14.377Z,100.00
2019-01-20T12:43:11.061Z,100.00
2019-01-20T12:46:06.643Z,100.00
2019-01-20T12:49:06.941Z,100.00
2019-01-20T12:52:04.746Z,100.00
2019-01-20T12:55:07.382Z,100.00
2019-01-20T12:58:05.101Z,99.98
2019-01-20T13:01:00.675Z,99.61
2019-01-20T13:03:57.421Z,98.90
2019-01-20T13:06:54.012Z,99.46
2019-01-20T13:09:50.809Z,99.81
2019-01-20T13:12:45.971Z,99.76
2019-01-20T13:15:43.484Z,98.96
2019-01-20T13:18:40.109Z,99.32
2019-01-20T13:21:38.437Z,98.65
2019-01-20T13:24:34.332Z,98.79
2019-01-20T13:27:32.175Z,99.38
2019-01-20T13:30:29.115Z,99.00
2019-01-20T13:33:25.661Z,98.43
2019-01-20T13:36:22.180Z,98.99
2019-01-20T13:39:18.992Z,99.24
2019-01-20T13:42:14.496Z,98.61
2019-01-20T13:45:10.987Z,98.54
2019-01-20T13:48:08.169Z,98.33
2019-01-20T13:51:04.712Z,98.59
2019-01-20T13:54:00.261Z,98.93
2019-01-20T13:56:58.011Z,98.60
2019-01-20T13:59:53.685Z,97.33
2019-01-20T14:02:50.266Z,97.26
2019-01-20T14:05:46.085Z,97.64
2019-01-20T14:08:44.318Z,97.97
2019-01-20T14:11:39.553Z,98.21
2019-01-20T14:14:35.660Z,98.77
2019-01-20T14:17:38.723Z,98.67
2019-01-20T14:20:49.075Z,98.56
2019-01-20T14:23:44.567Z,99.05
2019-01-20T14:26:41.247Z,98.64
2019-01-20T14:29:36.130Z,99.26
2019-01-20T14:32:32.805Z,99.50
2019-01-20T14:35:29.492Z,100.00
2019-01-20T14:38:27.397Z,100.00
2019-01-20T14:41:23.365Z,100.00
2019-01-20T14:44:19.735Z,100.00
2019-01-20T14:47:15.565Z,100.00
2019-01-20T14:50:11.972Z,100.00
2019-01-20T14:53:08.496Z,100.00
2019-01-20T14:56:04.909Z,100.00
2019-01-20T14:59:01.511Z,99.72
2019-01-20T15:01:58.130Z,99.84
2019-01-20T15:04:53.931Z,100.00
2019-01-20T15:07:49.996Z,100.00
2019-01-20T15:10:45.507Z,100.00
2019-01-20T15:13:42.199Z,100.00
2019-01-20T15:16:37.799Z,100.00
2019-01-20T15:19:38.442Z,100.00
2019-01-20T15:22:35.355Z,100.00
2019-01-20T15:25:33.205Z,100.00
2019-01-20T15:28:29.486Z,100.00
2019-01-20T15:31:26.983Z,100.00
2019-01-20T15:34:22.918Z,100.00
2019-01-20T15:37:19.733Z,100.00
2019-01-20T15:40:21.892Z,100.00
2019-01-20T15:43:17.886Z,100.00
2019-01-20T15:46:17.937Z,100.00
2019-01-20T15:49:16.786Z,100.00
2019-01-20T15:52:12.570Z,100.00
2019-01-20T15:55:09.368Z,100.00
2019-01-20T15:58:05.846Z,100.00
2019-01-20T16:01:02.435Z,100.00
2019-01-20T16:04:01.661Z,100.00
2019-01-20T16:06:58.442Z,100.00
2019-01-20T16:09:55.351Z,100.00
2019-01-20T16:12:52.011Z,100.00
2019-01-20T16:15:49.062Z,100.00
2019-01-20T16:18:46.209Z,100.00
2019-01-20T16:21:43.442Z,100.00
2019-01-20T16:24:40.831Z,100.00
2019-01-20T16:27:38.231Z,100.00
2019-01-20T16:30:37.720Z,100.00
2019-01-20T16:33:35.428Z,100.00
2019-01-20T16:36:38.276Z,100.00
2019-01-20T16:39:37.935Z,100.00
2019-01-20T16:42:34.870Z,100.00
2019-01-20T16:45:32.987Z,100.00
2019-01-20T16:48:27.432Z,100.00
2019-01-20T16:51:24.051Z,100.00
2019-01-20T16:54:20.735Z,100.00
2019-01-20T16:57:16.233Z,100.00
2019-01-20T17:00:13.092Z,100.00
2019-01-20T17:03:08.060Z,100.00
2019-01-20T17:06:04.763Z,100.00
2019-01-20T17:09:00.368Z,100.00
2019-01-20T17:11:57.306Z,100.00
2019-01-20T17:14:52.940Z,100.00
2019-01-20T17:17:49.695Z,100.00
2019-01-20T17:20:46.425Z,100.00
2019-01-20T17:23:43.336Z,100.00
2019-01-20T17:26:39.387Z,100.00
2019-01-20T17:29:36.635Z,100.00
2019-01-20T17:32:33.456Z,100.00
2019-01-20T17:35:30.248Z,100.00
2019-01-20T17:38:26.149Z,100.00
2019-01-20T17:41:35.149Z,100.00
2019-01-20T17:44:31.990Z,100.00
2019-01-20T17:47:28.834Z,100.00
2019-01-20T17:50:28.964Z,100.00
2019-01-20T17:53:25.631Z,100.00
2019-01-20T17:56:23.386Z,100.00
2019-01-20T17:59:26.631Z,100.00
2019-01-20T18:02:22.192Z,100.00
2019-01-20T18:05:19.229Z,100.00
2019-01-20T18:08:15.053Z,100.00
2019-01-20T18:11:13.856Z,100.00
2019-01-20T18:14:08.932Z,100.00
2019-01-20T18:17:05.802Z,100.00
2019-01-20T18:20:02.539Z,100.00
2019-01-20T18:22:59.390Z,100.00
2019-01-20T18:25:55.285Z,100.00
2019-01-20T18:28:52.882Z,100.00
2019-01-20T18:31:48.679Z,100.00
2019-01-20T18:34:46.250Z,100.00
2019-01-20T18:37:42.231Z,100.00
2019-01-20T18:40:38.928Z,100.00
2019-01-20T18:43:35.344Z,100.00
2019-01-20T18:46:32.241Z,100.00
2019-01-20T18:49:29.462Z,100.00
2019-01-20T18:52:32.586Z,100.00
2019-01-20T18:55:39.524Z,100.00
2019-01-20T18:58:36.565Z,100.00
2019-01-20T19:01:34.343Z,100.00
2019-01-20T19:04:31.084Z,100.00
2019-01-20T19:07:26.419Z,100.00
2019-01-20T19:10:23.302Z,100.00
2019-01-20T19:13:19.031Z,100.00
2019-01-20T19:16:15.733Z,100.00
2019-01-20T19:19:11.385Z,100.00
2019-01-20T19:22:10.332Z,100.00
2019-01-20T19:25:07.123Z,100.00
2019-01-20T19:28:02.983Z,100.00
2019-01-20T19:31:01.845Z,100.00
2019-01-20T19:33:58.406Z,100.00
2019-01-20T19:36:55.043Z,100.00
2019-01-20T19:39:51.411Z,100.00
2019-01-20T19:42:47.848Z,100.00
2019-01-20T19:45:43.739Z,100.00
2019-01-20T19:48:42.815Z,100.00
2019-01-20T19:51:39.811Z,100.00
2019-01-20T19:54:35.956Z,100.00
2019-01-20T19:57:33.098Z,100.00
2019-01-20T20:00:40.031Z,100.00
2019-01-20T20:03:37.863Z,100.00
2019-01-20T20:06:33.812Z,100.00
2019-01-20T20:09:35.658Z,100.00
2019-01-20T20:12:35.537Z,100.00
2019-01-20T20:15:33.290Z,100.00
2019-01-20T20:18:33.684Z,100.00
2019-01-20T20:21:30.300Z,100.00
2019-01-20T20:24:26.856Z,100.00
2019-01-20T20:27:23.022Z,100.00
2019-01-20T20:30:19.708Z,100.00
2019-01-20T20:33:18.310Z,100.00
2019-01-20T20:36:13.316Z,100.00
2019-01-20T20:39:10.457Z,100.00
2019-01-20T20:42:06.144Z,100.00
2019-01-20T20:45:03.298Z,100.00
2019-01-20T20:48:01.326Z,100.00
2019-01-20T20:50:57.524Z,100.00
2019-01-20T20:53:55.377Z,100.00
2019-01-20T20:56:51.425Z,100.00
2019-01-20T20:59:48.482Z,100.00
2019-01-20T21:02:44.478Z,100.00
2019-01-20T21:05:41.038Z,100.00
2019-01-20T21:08:36.581Z,100.00
2019-01-20T21:11:38.263Z,100.00
2019-01-20T21:14:34.276Z,100.00
2019-01-20T21:17:30.898Z,100.00
2019-01-20T21:20:27.843Z,100.00
2019-01-20T21:23:25.528Z,100.00
2019-01-20T21:26:21.059Z,100.00
2019-01-20T21:29:17.706Z,100.00
2019-01-20T21:32:13.662Z,100.00
2019-01-20T21:35:11.132Z,100.00
2019-01-20T21:38:07.156Z,100.00
2019-01-20T21:41:04.164Z,100.00
2019-01-20T21:44:00.882Z,100.00
2019-01-20T21:46:57.697Z,100.00
2019-01-20T21:49:53.452Z,100.00
2019-01-20T21:52:50.105Z,100.00
2019-01-20T21:55:44.752Z,100.00
2019-01-20T21:58:41.258Z,100.00
2019-01-20T22:01:36.986Z,100.00
2019-01-20T22:04:34.551Z,100.00
2019-01-20T22:07:31.229Z,100.00
2019-01-20T22:10:28.964Z,100.00
2019-01-20T22:13:25.379Z,100.00
2019-01-20T22:16:21.838Z,100.00
2019-01-20T22:19:17.417Z,100.00
2019-01-20T22:22:12.973Z,100.00
2019-01-20T22:25:15.513Z,100.00
2019-01-20T22:28:13.011Z,100.00
2019-01-20T22:31:09.763Z,100.00
2019-01-20T22:34:06.083Z,100.00
2019-01-20T22:37:03.908Z,100.00
2019-01-20T22:39:59.441Z,100.00
2019-01-20T22:42:56.228Z,100.00
2019-01-20T22:45:52.324Z,100.00
2019-01-20T22:48:49.099Z,100.00
2019-01-20T22:51:44.567Z,100.00
2019-01-20T22:54:42.147Z,100.00
2019-01-20T22:57:37.685Z,100.00
2019-01-20T23:01:03.134Z,100.00
2019-01-20T23:03:59.567Z,100.00
2019-01-20T23:06:55.324Z,100.00
2019-01-20T23:09:51.809Z,100.00
2019-01-20T23:12:46.433Z,100.00
2019-01-20T23:15:42.503Z,100.00
2019-01-20T23:18:37.995Z,100.00
2019-01-20T23:21:33.644Z,100.00
2019-01-20T23:24:41.358Z,100.00
2019-01-20T23:27:38.944Z,100.00
2019-01-20T23:30:34.314Z,100.00
2019-01-20T23:33:31.037Z,100.00
2019-01-20T23:36:27.829Z,100.00
2019-01-20T23:39:24.981Z,100.00
2019-01-20T23:42:20.795Z,100.00
2019-01-20T23:45:17.770Z,100.00
2019-01-20T23:48:12.707Z,100.00
2019-01-20T23:51:09.163Z,100.00
2019-01-20T23:54:04.794Z,100.00
2019-01-20T23:57:01.349Z,100.00
2019-01-20T23:59:57.059Z,100.00
